createdAt,value
2017-05-02T00:00:11.454Z,1014.07
2017-05-02T00:01:21.172Z,1014.13
2017-05-02T00:02:31.217Z,1014.12
2017-05-02T00:03:40.627Z,1014.12
2017-05-02T00:04:50.667Z,1014.17
2017-05-02T00:06:00.394Z,1014.14
2017-05-02T00:07:10.110Z,1014.07
2017-05-02T00:08:19.200Z,1014.09
2017-05-02T00:09:28.925Z,1014.06
2017-05-02T00:10:38.643Z,1014.08
2017-05-02T00:11:47.736Z,1014.06
2017-05-02T00:12:57.449Z,1014.08
2017-05-02T00:14:07.490Z,1014.11
2017-05-02T00:15:17.844Z,1014.14
2017-05-02T00:16:27.894Z,1014.09
2017-05-02T00:17:37.615Z,1014.13
2017-05-02T00:18:47.024Z,1014.06
2017-05-02T00:19:57.065Z,1014.11
2017-05-02T00:21:06.781Z,1014.1
2017-05-02T00:22:16.821Z,1014.15
2017-05-02T00:23:26.849Z,1014.12
2017-05-02T00:24:36.575Z,1014.1
2017-05-02T00:25:46.294Z,1014.06
2017-05-02T00:26:55.704Z,1014.06
2017-05-02T00:28:05.415Z,1014.04
2017-05-02T00:29:15.454Z,1014.05
2017-05-02T00:30:25.522Z,1014.06
2017-05-02T00:31:35.570Z,1014.06
2017-05-02T00:32:45.283Z,1014.07
2017-05-02T00:33:55.318Z,1014.13
2017-05-02T00:35:05.037Z,1014.08
2017-05-02T00:36:15.072Z,1014.09
2017-05-02T00:37:24.797Z,1014.11
2017-05-02T00:38:34.834Z,1014.06
2017-05-02T00:39:44.876Z,1014.08
2017-05-02T00:40:54.591Z,1014.08
2017-05-02T00:42:03.993Z,1014.06
2017-05-02T00:43:13.405Z,1014.02
2017-05-02T00:44:23.437Z,1014.01
2017-05-02T00:45:33.479Z,1014.03
2017-05-02T00:46:43.514Z,1014.01
2017-05-02T00:47:53.544Z,1014.02
2017-05-02T00:49:03.578Z,1014
2017-05-02T00:50:12.984Z,1013.97
2017-05-02T00:51:22.388Z,1013.99
2017-05-02T00:52:32.115Z,1013.97
2017-05-02T00:53:41.849Z,1014
2017-05-02T00:54:51.565Z,1014
2017-05-02T00:56:01.911Z,1013.99
2017-05-02T00:57:11.946Z,1013.98
2017-05-02T00:58:21.349Z,1013.96
2017-05-02T00:59:30.494Z,1013.99
2017-05-02T01:00:40.219Z,1013.94
2017-05-02T01:01:49.314Z,1014.02
2017-05-02T01:02:59.034Z,1014
2017-05-02T01:04:08.752Z,1013.95
2017-05-02T01:05:19.108Z,1013.98
2017-05-02T01:06:28.828Z,1013.95
2017-05-02T01:07:38.867Z,1013.91
2017-05-02T01:08:48.284Z,1013.94
2017-05-02T01:09:58.005Z,1013.98
2017-05-02T01:11:07.733Z,1014.01
2017-05-02T01:12:18.093Z,1014
2017-05-02T01:13:27.814Z,1013.99
2017-05-02T01:14:38.187Z,1014.02
2017-05-02T01:15:48.225Z,1014.03
2017-05-02T01:16:57.947Z,1014.04
2017-05-02T01:18:07.989Z,1014.06
2017-05-02T01:19:18.022Z,1014.02
2017-05-02T01:20:28.054Z,1014.04
2017-05-02T01:21:37.507Z,1014.01
2017-05-02T01:22:46.913Z,1014.03
2017-05-02T01:23:57.253Z,1014.02
2017-05-02T01:25:06.659Z,1014.01
2017-05-02T01:26:15.807Z,1014.01
2017-05-02T01:27:25.520Z,1014.04
2017-05-02T01:28:35.251Z,1014.04
2017-05-02T01:29:44.655Z,1014.05
2017-05-02T01:30:54.379Z,1014.06
2017-05-02T01:32:04.734Z,1014.07
2017-05-02T01:33:14.138Z,1014.08
2017-05-02T01:34:24.498Z,1014.09
2017-05-02T01:35:34.860Z,1014.1
2017-05-02T01:36:44.891Z,1014.11
2017-05-02T01:37:54.612Z,1014.09
2017-05-02T01:39:04.338Z,1014.08
2017-05-02T01:40:14.065Z,1014.11
2017-05-02T01:41:24.096Z,1014.13
2017-05-02T01:42:34.136Z,1014.15
2017-05-02T01:43:44.174Z,1014.16
2017-05-02T01:44:54.529Z,1014.15
2017-05-02T01:46:04.569Z,1014.17
2017-05-02T01:47:14.606Z,1014.16
2017-05-02T01:48:24.632Z,1014.14
2017-05-02T01:49:34.046Z,1014.18
2017-05-02T01:50:43.452Z,1014.12
2017-05-02T01:51:53.482Z,1014.13
2017-05-02T01:53:03.538Z,1014.13
2017-05-02T01:54:13.588Z,1014.12
2017-05-02T01:55:22.990Z,1014.09
2017-05-02T01:56:33.346Z,1014.09
2017-05-02T01:57:43.097Z,1014.06
2017-05-02T01:58:52.819Z,1014.06
2017-05-02T02:00:02.530Z,1014.05
2017-05-02T02:01:12.881Z,1014.08
2017-05-02T02:02:22.923Z,1014.1
2017-05-02T02:03:32.648Z,1014.07
2017-05-02T02:04:42.371Z,1014.09
2017-05-02T02:05:51.777Z,1014.11
2017-05-02T02:07:01.504Z,1014.08
2017-05-02T02:08:11.220Z,1014.1
2017-05-02T02:09:20.939Z,1014.06
2017-05-02T02:10:31.298Z,1014.08
2017-05-02T02:11:41.339Z,1014.05
2017-05-02T02:12:51.695Z,1014.03
2017-05-02T02:14:01.101Z,1014.02
2017-05-02T02:15:11.457Z,1014.08
2017-05-02T02:16:21.185Z,1014.1
2017-05-02T02:17:31.533Z,1014.09
2017-05-02T02:18:41.892Z,1014.09
2017-05-02T02:19:51.628Z,1014.07
2017-05-02T02:21:01.036Z,1014.05
2017-05-02T02:22:10.444Z,1014.07
2017-05-02T02:23:19.848Z,1014.02
2017-05-02T02:24:30.204Z,1014.03
2017-05-02T02:25:40.229Z,1014.03
2017-05-02T02:26:49.319Z,1014
2017-05-02T02:27:59.040Z,1014.01
2017-05-02T02:29:08.770Z,1013.99
2017-05-02T02:30:18.501Z,1014.01
2017-05-02T02:31:28.857Z,1013.95
2017-05-02T02:32:38.890Z,1013.96
2017-05-02T02:33:48.610Z,1013.99
2017-05-02T02:34:58.646Z,1014.01
2017-05-02T02:36:08.056Z,1013.99
2017-05-02T02:37:17.155Z,1013.96
2017-05-02T02:38:27.511Z,1013.96
2017-05-02T02:39:37.231Z,1013.97
2017-05-02T02:40:47.587Z,1013.91
2017-05-02T02:41:57.629Z,1013.93
2017-05-02T02:43:07.362Z,1013.93
2017-05-02T02:44:16.777Z,1013.92
2017-05-02T02:45:26.821Z,1013.91
2017-05-02T02:46:36.229Z,1013.88
2017-05-02T02:47:45.643Z,1013.94
2017-05-02T02:48:55.995Z,1013.91
2017-05-02T02:50:05.710Z,1013.88
2017-05-02T02:51:15.430Z,1013.88
2017-05-02T02:52:25.143Z,1013.87
2017-05-02T02:53:34.858Z,1013.86
2017-05-02T02:54:44.886Z,1013.85
2017-05-02T02:55:54.608Z,1013.8
2017-05-02T02:57:04.645Z,1013.82
2017-05-02T02:58:14.386Z,1013.81
2017-05-02T02:59:23.797Z,1013.78
2017-05-02T03:00:33.212Z,1013.78
2017-05-02T03:01:43.239Z,1013.74
2017-05-02T03:02:52.660Z,1013.76
2017-05-02T03:04:02.702Z,1013.74
2017-05-02T03:05:12.754Z,1013.7
2017-05-02T03:06:22.797Z,1013.74
2017-05-02T03:07:32.528Z,1013.73
2017-05-02T03:08:42.892Z,1013.72
2017-05-02T03:09:53.245Z,1013.69
2017-05-02T03:11:03.273Z,1013.7
2017-05-02T03:12:12.998Z,1013.73
2017-05-02T03:13:22.715Z,1013.68
2017-05-02T03:14:32.746Z,1013.67
2017-05-02T03:15:42.785Z,1013.71
2017-05-02T03:16:52.823Z,1013.75
2017-05-02T03:18:02.861Z,1013.73
2017-05-02T03:19:12.906Z,1013.68
2017-05-02T03:20:22.324Z,1013.71
2017-05-02T03:21:31.423Z,1013.71
2017-05-02T03:22:41.142Z,1013.72
2017-05-02T03:23:50.229Z,1013.71
2017-05-02T03:25:00.283Z,1013.71
2017-05-02T03:26:09.699Z,1013.69
2017-05-02T03:27:19.105Z,1013.66
2017-05-02T03:28:28.512Z,1013.68
2017-05-02T03:29:38.544Z,1013.7
2017-05-02T03:30:48.899Z,1013.68
2017-05-02T03:31:58.937Z,1013.68
2017-05-02T03:33:08.016Z,1013.67
2017-05-02T03:34:18.375Z,1013.7
2017-05-02T03:35:27.809Z,1013.66
2017-05-02T03:36:38.175Z,1013.66
2017-05-02T03:37:47.575Z,1013.62
2017-05-02T03:38:57.609Z,1013.61
2017-05-02T03:40:07.322Z,1013.61
2017-05-02T03:41:17.353Z,1013.63
2017-05-02T03:42:27.387Z,1013.59
2017-05-02T03:43:37.101Z,1013.62
2017-05-02T03:44:47.134Z,1013.64
2017-05-02T03:45:57.175Z,1013.65
2017-05-02T03:47:07.205Z,1013.62
2017-05-02T03:48:16.605Z,1013.63
2017-05-02T03:49:26.332Z,1013.63
2017-05-02T03:50:36.053Z,1013.62
2017-05-02T03:51:45.770Z,1013.6
2017-05-02T03:52:55.498Z,1013.62
2017-05-02T03:54:05.225Z,1013.61
2017-05-02T03:55:15.578Z,1013.61
2017-05-02T03:56:25.291Z,1013.63
2017-05-02T03:57:34.699Z,1013.61
2017-05-02T03:58:44.484Z,1013.59
2017-05-02T03:59:54.844Z,1013.63
2017-05-02T04:01:04.572Z,1013.61
2017-05-02T04:02:14.289Z,1013.59
2017-05-02T04:03:24.324Z,1013.58
2017-05-02T04:04:34.046Z,1013.58
2017-05-02T04:05:44.073Z,1013.59
2017-05-02T04:06:54.122Z,1013.55
2017-05-02T04:08:03.534Z,1013.57
2017-05-02T04:09:12.955Z,1013.56
2017-05-02T04:10:23.304Z,1013.59
2017-05-02T04:11:32.708Z,1013.59
2017-05-02T04:12:42.112Z,1013.6
2017-05-02T04:13:51.835Z,1013.63
2017-05-02T04:15:01.874Z,1013.65
2017-05-02T04:16:11.913Z,1013.65
2017-05-02T04:17:21.315Z,1013.68
2017-05-02T04:18:31.361Z,1013.66
2017-05-02T04:19:41.089Z,1013.71
2017-05-02T04:20:51.140Z,1013.69
2017-05-02T04:22:01.182Z,1013.74
2017-05-02T04:23:10.902Z,1013.71
2017-05-02T04:24:20.314Z,1013.73
2017-05-02T04:25:29.725Z,1013.71
2017-05-02T04:26:39.798Z,1013.76
2017-05-02T04:27:49.195Z,1013.74
2017-05-02T04:28:59.243Z,1013.73
2017-05-02T04:30:09.606Z,1013.71
2017-05-02T04:31:19.959Z,1013.7
2017-05-02T04:32:29.368Z,1013.77
2017-05-02T04:33:39.724Z,1013.72
2017-05-02T04:34:49.778Z,1013.77
2017-05-02T04:35:59.183Z,1013.74
2017-05-02T04:37:09.234Z,1013.74
2017-05-02T04:38:18.954Z,1013.77
2017-05-02T04:39:28.366Z,1013.77
2017-05-02T04:40:37.778Z,1013.77
2017-05-02T04:41:47.493Z,1013.76
2017-05-02T04:42:57.530Z,1013.77
2017-05-02T04:44:07.594Z,1013.77
2017-05-02T04:45:17.636Z,1013.75
2017-05-02T04:46:26.727Z,1013.72
2017-05-02T04:47:36.127Z,1013.74
2017-05-02T04:48:46.162Z,1013.74
2017-05-02T04:49:55.890Z,1013.74
2017-05-02T04:51:05.932Z,1013.71
2017-05-02T04:52:15.329Z,1013.76
2017-05-02T04:53:25.361Z,1013.77
2017-05-02T04:54:34.450Z,1013.78
2017-05-02T04:55:44.491Z,1013.77
2017-05-02T04:56:54.523Z,1013.77
2017-05-02T04:58:04.559Z,1013.75
2017-05-02T04:59:14.598Z,1013.77
2017-05-02T05:00:24.317Z,1013.74
2017-05-02T05:01:34.036Z,1013.71
2017-05-02T05:02:43.441Z,1013.74
2017-05-02T05:03:53.162Z,1013.75
2017-05-02T05:05:03.208Z,1013.72
2017-05-02T05:06:12.934Z,1013.68
2017-05-02T05:07:22.650Z,1013.72
2017-05-02T05:08:32.698Z,1013.71
2017-05-02T05:09:42.729Z,1013.71
2017-05-02T05:10:52.769Z,1013.72
2017-05-02T05:12:02.491Z,1013.76
2017-05-02T05:13:11.903Z,1013.78
2017-05-02T05:14:22.261Z,1013.73
2017-05-02T05:15:31.983Z,1013.78
2017-05-02T05:16:42.334Z,1013.76
2017-05-02T05:17:52.369Z,1013.73
2017-05-02T05:19:02.098Z,1013.71
2017-05-02T05:20:11.830Z,1013.71
2017-05-02T05:21:21.545Z,1013.71
2017-05-02T05:22:31.579Z,1013.67
2017-05-02T05:23:41.306Z,1013.73
2017-05-02T05:24:51.030Z,1013.73
2017-05-02T05:26:00.432Z,1013.69
2017-05-02T05:27:10.465Z,1013.67
2017-05-02T05:28:19.879Z,1013.69
2017-05-02T05:29:29.913Z,1013.71
2017-05-02T05:30:39.949Z,1013.68
2017-05-02T05:31:49.668Z,1013.69
2017-05-02T05:32:59.697Z,1013.64
2017-05-02T05:34:09.105Z,1013.63
2017-05-02T05:35:18.837Z,1013.63
2017-05-02T05:36:28.562Z,1013.68
2017-05-02T05:37:38.599Z,1013.67
2017-05-02T05:38:48.326Z,1013.67
2017-05-02T05:39:57.733Z,1013.66
2017-05-02T05:41:07.459Z,1013.65
2017-05-02T05:42:17.182Z,1013.73
2017-05-02T05:43:27.216Z,1013.75
2017-05-02T05:44:37.576Z,1013.68
2017-05-02T05:45:47.295Z,1013.81
2017-05-02T05:46:57.009Z,1013.8
2017-05-02T05:48:07.355Z,1013.83
2017-05-02T05:49:17.395Z,1013.79
2017-05-02T05:50:26.488Z,1013.79
2017-05-02T05:51:36.206Z,1013.79
2017-05-02T05:52:44.982Z,1013.8
2017-05-02T05:53:55.025Z,1013.75
2017-05-02T05:55:04.430Z,1013.8
2017-05-02T05:56:13.852Z,1013.78
2017-05-02T05:57:23.580Z,1013.79
2017-05-02T05:58:33.936Z,1013.82
2017-05-02T05:59:43.661Z,1013.81
2017-05-02T06:00:53.699Z,1013.79
2017-05-02T06:02:03.420Z,1013.81
2017-05-02T06:03:13.481Z,1013.83
2017-05-02T06:04:23.523Z,1013.8
2017-05-02T06:05:33.245Z,1013.8
2017-05-02T06:06:42.653Z,1013.81
2017-05-02T06:07:52.378Z,1013.81
2017-05-02T06:09:02.421Z,1013.82
2017-05-02T06:10:12.457Z,1013.84
2017-05-02T06:11:22.171Z,1013.86
2017-05-02T06:12:32.206Z,1013.85
2017-05-02T06:13:41.916Z,1013.88
2017-05-02T06:14:51.954Z,1013.86
2017-05-02T06:16:02.005Z,1013.83
2017-05-02T06:17:11.095Z,1013.84
2017-05-02T06:18:21.138Z,1013.86
2017-05-02T06:19:30.865Z,1013.88
2017-05-02T06:20:40.600Z,1013.9
2017-05-02T06:21:50.320Z,1013.82
2017-05-02T06:22:59.732Z,1013.91
2017-05-02T06:24:09.460Z,1013.89
2017-05-02T06:25:19.507Z,1013.82
2017-05-02T06:26:29.585Z,1013.8
2017-05-02T06:27:38.997Z,1013.8
2017-05-02T06:28:49.028Z,1013.79
2017-05-02T06:29:58.436Z,1013.78
2017-05-02T06:31:07.835Z,1013.8
2017-05-02T06:32:17.239Z,1013.78
2017-05-02T06:33:26.654Z,1013.82
2017-05-02T06:34:36.390Z,1013.81
2017-05-02T06:35:46.438Z,1013.79
2017-05-02T06:36:56.151Z,1013.79
2017-05-02T06:38:05.240Z,1013.74
2017-05-02T06:39:15.285Z,1013.79
2017-05-02T06:40:24.692Z,1013.76
2017-05-02T06:41:34.095Z,1013.76
2017-05-02T06:42:44.132Z,1013.75
2017-05-02T06:43:53.223Z,1013.73
2017-05-02T06:45:03.571Z,1013.73
2017-05-02T06:46:13.921Z,1013.7
2017-05-02T06:47:24.273Z,1013.7
2017-05-02T06:48:34.001Z,1013.67
2017-05-02T06:49:43.728Z,1013.71
2017-05-02T06:50:53.146Z,1013.74
2017-05-02T06:52:03.502Z,1013.75
2017-05-02T06:53:13.551Z,1013.72
2017-05-02T06:54:23.329Z,1013.74
2017-05-02T06:55:33.373Z,1013.71
2017-05-02T06:56:43.414Z,1013.75
2017-05-02T06:57:52.817Z,1013.75
2017-05-02T06:59:02.859Z,1013.75
2017-05-02T07:00:12.255Z,1013.74
2017-05-02T07:01:22.293Z,1013.75
2017-05-02T07:02:32.664Z,1013.76
2017-05-02T07:03:42.075Z,1013.73
2017-05-02T07:04:51.803Z,1013.71
2017-05-02T07:06:02.200Z,1013.74
2017-05-02T07:07:11.919Z,1013.76
2017-05-02T07:08:21.955Z,1013.73
2017-05-02T07:09:31.362Z,1013.74
2017-05-02T07:10:41.085Z,1013.75
2017-05-02T07:11:50.494Z,1013.71
2017-05-02T07:13:00.531Z,1013.67
2017-05-02T07:14:10.247Z,1013.73
2017-05-02T07:15:19.965Z,1013.74
2017-05-02T07:16:30.311Z,1013.74
2017-05-02T07:17:40.380Z,1013.74
2017-05-02T07:18:50.101Z,1013.79
2017-05-02T07:20:00.147Z,1013.76
2017-05-02T07:21:09.868Z,1013.8
2017-05-02T07:22:19.915Z,1013.85
2017-05-02T07:23:30.268Z,1013.87
2017-05-02T07:24:40.297Z,1013.79
2017-05-02T07:25:50.016Z,1013.81
2017-05-02T07:26:59.748Z,1013.78
2017-05-02T07:28:09.462Z,1013.77
2017-05-02T07:29:19.503Z,1013.83
2017-05-02T07:30:28.600Z,1013.8
2017-05-02T07:31:38.324Z,1013.84
2017-05-02T07:32:48.050Z,1013.77
2017-05-02T07:33:57.462Z,1013.77
2017-05-02T07:35:07.807Z,1013.77
2017-05-02T07:36:17.211Z,1013.8
2017-05-02T07:37:26.925Z,1013.77
2017-05-02T07:38:36.329Z,1013.76
2017-05-02T07:39:46.053Z,1013.83
2017-05-02T07:40:55.778Z,1013.77
2017-05-02T07:42:05.501Z,1013.74
2017-05-02T07:43:15.533Z,1013.77
2017-05-02T07:44:25.265Z,1013.77
2017-05-02T07:45:35.613Z,1013.74
2017-05-02T07:46:45.650Z,1013.82
2017-05-02T07:47:55.688Z,1013.78
2017-05-02T07:49:05.723Z,1013.79
2017-05-02T07:50:15.452Z,1013.83
2017-05-02T07:51:25.179Z,1013.83
2017-05-02T07:52:34.581Z,1013.8
2017-05-02T07:53:44.302Z,1013.84
2017-05-02T07:54:53.715Z,1013.85
2017-05-02T07:56:03.125Z,1013.8
2017-05-02T07:57:13.159Z,1013.81
2017-05-02T07:58:23.194Z,1013.81
2017-05-02T07:59:33.557Z,1013.8
2017-05-02T08:00:43.919Z,1013.77
2017-05-02T08:01:53.637Z,1013.83
2017-05-02T08:03:03.048Z,1013.84
2017-05-02T08:04:12.146Z,1013.81
2017-05-02T08:05:20.921Z,1013.79
2017-05-02T08:06:30.637Z,1013.79
2017-05-02T08:07:40.657Z,1013.8
2017-05-02T08:08:50.065Z,1013.77
2017-05-02T08:09:59.169Z,1013.81
2017-05-02T08:11:08.886Z,1013.81
2017-05-02T08:12:18.606Z,1013.84
2017-05-02T08:13:28.648Z,1013.9
2017-05-02T08:14:38.062Z,1013.86
2017-05-02T08:15:48.136Z,1013.91
2017-05-02T08:16:58.486Z,1013.94
2017-05-02T08:18:08.520Z,1013.95
2017-05-02T08:19:17.928Z,1013.96
2017-05-02T08:20:27.649Z,1013.99
2017-05-02T08:21:37.356Z,1014.03
2017-05-02T08:22:47.709Z,1014
2017-05-02T08:23:57.118Z,1014.05
2017-05-02T08:25:07.170Z,1014.04
2017-05-02T08:26:16.254Z,1014.04
2017-05-02T08:27:25.660Z,1014.02
2017-05-02T08:28:35.704Z,1014.07
2017-05-02T08:29:45.751Z,1014.03
2017-05-02T08:30:55.796Z,1014.04
2017-05-02T08:32:05.203Z,1014.05
2017-05-02T08:33:15.244Z,1014.05
2017-05-02T08:34:24.649Z,1014.04
2017-05-02T08:35:33.429Z,1014.02
2017-05-02T08:36:42.837Z,1014
2017-05-02T08:37:52.557Z,1014.03
2017-05-02T08:39:02.322Z,1014.07
2017-05-02T08:40:12.358Z,1014.06
2017-05-02T08:41:22.724Z,1014.01
2017-05-02T08:42:31.814Z,1013.98
2017-05-02T08:43:41.215Z,1014.06
2017-05-02T08:44:51.253Z,1013.98
2017-05-02T08:46:01.606Z,1014
2017-05-02T08:47:11.324Z,1013.94
2017-05-02T08:48:21.055Z,1013.98
2017-05-02T08:49:30.786Z,1013.98
2017-05-02T08:50:41.131Z,1013.99
2017-05-02T08:51:51.172Z,1014.01
2017-05-02T08:53:01.531Z,1013.99
2017-05-02T08:54:10.940Z,1014.03
2017-05-02T08:55:20.668Z,1014.02
2017-05-02T08:56:30.699Z,1013.99
2017-05-02T08:57:40.738Z,1014.04
2017-05-02T08:58:50.465Z,1014.01
2017-05-02T09:00:00.534Z,1013.99
2017-05-02T09:01:10.883Z,1014.01
2017-05-02T09:02:20.301Z,1014.03
2017-05-02T09:03:30.342Z,1014.04
2017-05-02T09:04:40.392Z,1014.03
2017-05-02T09:05:50.128Z,1014.04
2017-05-02T09:06:59.538Z,1014.04
2017-05-02T09:08:09.272Z,1014.02
2017-05-02T09:09:18.696Z,1014.06
2017-05-02T09:10:28.420Z,1014.05
2017-05-02T09:11:38.454Z,1014.06
2017-05-02T09:12:48.482Z,1014.07
2017-05-02T09:13:58.832Z,1014.07
2017-05-02T09:15:08.554Z,1014.11
2017-05-02T09:16:18.273Z,1014.08
2017-05-02T09:17:28.001Z,1014.12
2017-05-02T09:18:37.732Z,1014.09
2017-05-02T09:19:47.151Z,1014.11
2017-05-02T09:20:57.496Z,1014.17
2017-05-02T09:22:07.843Z,1014.13
2017-05-02T09:23:17.565Z,1014.17
2017-05-02T09:24:27.293Z,1014.13
2017-05-02T09:25:36.383Z,1014.16
2017-05-02T09:26:46.419Z,1014.18
2017-05-02T09:27:56.778Z,1014.19
2017-05-02T09:29:05.868Z,1014.21
2017-05-02T09:30:15.262Z,1014.22
2017-05-02T09:31:25.610Z,1014.18
2017-05-02T09:32:35.643Z,1014.17
2017-05-02T09:33:45.370Z,1014.18
2017-05-02T09:34:55.095Z,1014.22
2017-05-02T09:36:05.138Z,1014.27
2017-05-02T09:37:14.245Z,1014.23
2017-05-02T09:38:23.963Z,1014.27
2017-05-02T09:39:33.687Z,1014.25
2017-05-02T09:40:42.789Z,1014.19
2017-05-02T09:41:52.825Z,1014.24
2017-05-02T09:43:02.225Z,1014.24
2017-05-02T09:44:12.255Z,1014.22
2017-05-02T09:45:21.978Z,1014.29
2017-05-02T09:46:31.388Z,1014.22
2017-05-02T09:47:41.755Z,1014.27
2017-05-02T09:48:51.796Z,1014.24
2017-05-02T09:50:01.850Z,1014.19
2017-05-02T09:51:11.895Z,1014.23
2017-05-02T09:52:21.619Z,1014.23
2017-05-02T09:53:31.673Z,1014.25
2017-05-02T09:54:41.394Z,1014.26
2017-05-02T09:55:51.108Z,1014.21
2017-05-02T09:57:01.154Z,1014.16
2017-05-02T09:58:10.877Z,1014.18
2017-05-02T09:59:21.236Z,1014.22
2017-05-02T10:00:30.969Z,1014.2
2017-05-02T10:01:41.011Z,1014.19
2017-05-02T10:02:50.417Z,1014.21
2017-05-02T10:03:59.825Z,1014.19
2017-05-02T10:05:09.553Z,1014.16
2017-05-02T10:06:19.590Z,1014.25
2017-05-02T10:07:29.630Z,1014.18
2017-05-02T10:08:39.674Z,1014.22
2017-05-02T10:09:49.406Z,1014.27
2017-05-02T10:10:59.157Z,1014.28
2017-05-02T10:12:09.226Z,1014.22
2017-05-02T10:13:18.636Z,1014.26
2017-05-02T10:14:29.008Z,1014.24
2017-05-02T10:15:38.416Z,1014.2
2017-05-02T10:16:47.831Z,1014.21
2017-05-02T10:17:57.876Z,1014.25
2017-05-02T10:19:07.598Z,1014.24
2017-05-02T10:20:17.326Z,1014.19
2017-05-02T10:21:27.372Z,1014.21
2017-05-02T10:22:37.423Z,1014.26
2017-05-02T10:23:47.466Z,1014.31
2017-05-02T10:24:57.209Z,1014.35
2017-05-02T10:26:07.270Z,1014.37
2017-05-02T10:27:16.995Z,1014.4
2017-05-02T10:28:26.416Z,1014.41
2017-05-02T10:29:36.149Z,1014.39
2017-05-02T10:30:45.553Z,1014.39
2017-05-02T10:31:55.708Z,1014.38
2017-05-02T10:33:05.749Z,1014.38
2017-05-02T10:34:15.475Z,1014.3
2017-05-02T10:35:24.581Z,1014.27
2017-05-02T10:36:33.991Z,1014.38
2017-05-02T10:37:44.029Z,1014.4
2017-05-02T10:38:54.083Z,1014.51
2017-05-02T10:40:04.440Z,1014.45
2017-05-02T10:41:14.167Z,1014.49
2017-05-02T10:42:24.215Z,1014.53
2017-05-02T10:43:34.257Z,1014.52
2017-05-02T10:44:43.376Z,1014.56
2017-05-02T10:45:53.449Z,1014.46
2017-05-02T10:47:03.809Z,1014.51
2017-05-02T10:48:13.222Z,1014.47
2017-05-02T10:49:22.953Z,1014.41
2017-05-02T10:50:32.693Z,1014.51
2017-05-02T10:51:43.059Z,1014.49
2017-05-02T10:52:53.430Z,1014.34
2017-05-02T10:54:03.481Z,1014.33
2017-05-02T10:55:13.529Z,1014.34
2017-05-02T10:56:22.943Z,1014.4
2017-05-02T10:57:33.301Z,1014.48
2017-05-02T10:58:43.039Z,1014.48
2017-05-02T10:59:52.772Z,1014.39
2017-05-02T11:01:02.494Z,1014.36
2017-05-02T11:02:12.535Z,1014.34
2017-05-02T11:03:22.577Z,1014.31
2017-05-02T11:04:32.626Z,1014.31
2017-05-02T11:05:42.041Z,1014.32
2017-05-02T11:06:51.454Z,1014.24
2017-05-02T11:08:01.494Z,1014.19
2017-05-02T11:09:11.223Z,1014.25
2017-05-02T11:10:21.265Z,1014.34
2017-05-02T11:11:31.306Z,1014.37
2017-05-02T11:12:41.664Z,1014.36
2017-05-02T11:13:51.407Z,1014.32
2017-05-02T11:15:00.825Z,1014.25
2017-05-02T11:16:11.176Z,1014.22
2017-05-02T11:17:20.595Z,1014.17
2017-05-02T11:18:30.961Z,1014.23
2017-05-02T11:19:40.684Z,1014.21
2017-05-02T11:20:51.040Z,1014.26
2017-05-02T11:22:00.477Z,1014.29
2017-05-02T11:23:10.844Z,1014.36
2017-05-02T11:24:20.262Z,1014.43
2017-05-02T11:25:30.621Z,1014.41
2017-05-02T11:26:40.675Z,1014.44
2017-05-02T11:27:50.407Z,1014.39
2017-05-02T11:29:00.130Z,1014.42
2017-05-02T11:30:10.173Z,1014.4
2017-05-02T11:31:19.583Z,1014.37
2017-05-02T11:32:29.324Z,1014.38
2017-05-02T11:33:39.062Z,1014.34
2017-05-02T11:34:48.479Z,1014.35
2017-05-02T11:35:57.895Z,1014.36
2017-05-02T11:37:07.620Z,1014.25
2017-05-02T11:38:16.745Z,1014.23
2017-05-02T11:39:26.479Z,1014.34
2017-05-02T11:40:36.220Z,1014.39
2017-05-02T11:41:45.952Z,1014.34
2017-05-02T11:42:55.363Z,1014.38
2017-05-02T11:44:05.407Z,1014.44
2017-05-02T11:45:14.829Z,1014.5
2017-05-02T11:46:24.589Z,1014.47
2017-05-02T11:47:34.318Z,1014.44
2017-05-02T11:48:44.055Z,1014.37
2017-05-02T11:49:54.105Z,1014.33
2017-05-02T11:51:04.152Z,1014.31
2017-05-02T11:52:14.211Z,1014.25
2017-05-02T11:53:23.636Z,1014.41
2017-05-02T11:54:33.367Z,1014.34
2017-05-02T11:55:42.776Z,1014.32
2017-05-02T11:56:52.827Z,1014.3
2017-05-02T11:58:02.874Z,1014.41
2017-05-02T11:59:12.605Z,1014.27
2017-05-02T12:00:22.654Z,1014.23
2017-05-02T12:01:31.758Z,1014.24
2017-05-02T12:02:41.491Z,1014.2
2017-05-02T12:03:50.958Z,1014.21
2017-05-02T12:05:00.687Z,1014.13
2017-05-02T12:06:10.431Z,1014.18
2017-05-02T12:07:20.483Z,1014.15
2017-05-02T12:08:29.587Z,1014.12
2017-05-02T12:09:39.315Z,1014.18
2017-05-02T12:10:49.364Z,1014.2
2017-05-02T12:11:59.095Z,1014.22
2017-05-02T12:13:08.506Z,1014.27
2017-05-02T12:14:18.240Z,1014.24
2017-05-02T12:15:28.007Z,1014.32
2017-05-02T12:16:38.050Z,1014.24
2017-05-02T12:17:48.100Z,1014.19
2017-05-02T12:18:57.518Z,1014.3
2017-05-02T12:20:06.940Z,1014.22
2017-05-02T12:21:16.669Z,1014.2
2017-05-02T12:22:26.398Z,1014.23
2017-05-02T12:23:35.813Z,1014.28
2017-05-02T12:24:46.184Z,1014.27
2017-05-02T12:25:55.909Z,1014.27
2017-05-02T12:27:05.958Z,1014.27
2017-05-02T12:28:15.689Z,1014.24
2017-05-02T12:29:25.742Z,1014.21
2017-05-02T12:30:35.501Z,1014.15
2017-05-02T12:31:45.858Z,1014.11
2017-05-02T12:32:55.593Z,1014.12
2017-05-02T12:34:05.953Z,1014.2
2017-05-02T12:35:15.377Z,1014.22
2017-05-02T12:36:24.792Z,1014.25
2017-05-02T12:37:34.238Z,1014.11
2017-05-02T12:38:43.647Z,1014.13
2017-05-02T12:39:53.383Z,1014.11
2017-05-02T12:41:03.428Z,1014.14
2017-05-02T12:42:12.526Z,1014.14
2017-05-02T12:43:22.570Z,1014.19
2017-05-02T12:44:32.937Z,1014.19
2017-05-02T12:45:42.351Z,1014.24
2017-05-02T12:46:52.078Z,1014.22
2017-05-02T12:48:01.844Z,1014.33
2017-05-02T12:49:11.580Z,1014.26
2017-05-02T12:50:21.003Z,1014.11
2017-05-02T12:51:30.729Z,1014.17
2017-05-02T12:52:40.474Z,1014.14
2017-05-02T12:53:50.838Z,1014.09
2017-05-02T12:58:10.326Z,1014.13
2017-05-02T12:59:20.370Z,1014.06
2017-05-02T13:00:30.417Z,1014.01
2017-05-02T13:01:40.471Z,1013.91
2017-05-02T13:02:50.201Z,1013.92
2017-05-02T13:04:00.270Z,1013.86
2017-05-02T13:05:10.624Z,1013.89
2017-05-02T13:06:20.039Z,1013.87
2017-05-02T13:07:30.087Z,1013.84
2017-05-02T13:08:39.501Z,1013.83
2017-05-02T13:09:49.253Z,1013.83
2017-05-02T13:10:58.668Z,1013.85
2017-05-02T13:12:07.782Z,1013.92
2017-05-02T13:13:17.512Z,1013.91
2017-05-02T13:14:26.928Z,1013.91
2017-05-02T13:15:36.978Z,1013.92
2017-05-02T13:16:46.693Z,1013.89
2017-05-02T13:17:56.755Z,1013.9
2017-05-02T13:19:07.115Z,1013.96
2017-05-02T13:20:16.842Z,1013.94
2017-05-02T13:21:26.570Z,1013.89
2017-05-02T13:22:35.994Z,1013.91
2017-05-02T13:23:45.086Z,1013.86
2017-05-02T13:24:54.819Z,1013.91
2017-05-02T13:26:04.863Z,1013.92
2017-05-02T13:27:14.587Z,1013.94
2017-05-02T13:28:24.666Z,1013.89
2017-05-02T13:29:34.715Z,1013.89
2017-05-02T13:30:44.447Z,1013.96
2017-05-02T13:31:54.177Z,1013.93
2017-05-02T13:33:03.903Z,1013.86
2017-05-02T13:34:14.264Z,1013.93
2017-05-02T13:35:24.000Z,1013.97
2017-05-02T13:36:33.727Z,1013.99
2017-05-02T13:37:43.454Z,1014.02
2017-05-02T13:38:53.188Z,1013.99
2017-05-02T13:40:03.229Z,1013.91
2017-05-02T13:41:12.959Z,1013.88
2017-05-02T13:42:23.005Z,1013.86
2017-05-02T13:43:32.421Z,1013.79
2017-05-02T13:44:42.146Z,1013.76
2017-05-02T13:45:51.876Z,1013.73
2017-05-02T13:47:01.604Z,1013.66
2017-05-02T13:48:10.730Z,1013.67
2017-05-02T13:49:21.087Z,1013.58
2017-05-02T13:50:30.503Z,1013.6
2017-05-02T13:51:39.921Z,1013.64
2017-05-02T13:52:49.647Z,1013.63
2017-05-02T13:53:59.705Z,1013.6
2017-05-02T13:55:09.743Z,1013.6
2017-05-02T13:56:19.476Z,1013.63
2017-05-02T13:57:28.571Z,1013.67
2017-05-02T13:58:38.612Z,1013.66
2017-05-02T13:59:47.715Z,1013.72
2017-05-02T14:00:57.444Z,1013.6
2017-05-02T14:02:07.477Z,1013.69
2017-05-02T14:03:17.209Z,1013.84
2017-05-02T14:04:26.944Z,1013.8
2017-05-02T14:05:37.299Z,1013.88
2017-05-02T14:06:47.028Z,1013.85
2017-05-02T14:07:57.063Z,1013.87
2017-05-02T14:09:06.484Z,1013.86
2017-05-02T14:10:16.207Z,1013.93